sensor_id;sensor_type;location;lat;lon;timestamp;P1;durP1;ratioP1;P2;durP2;ratioP2
14665;SDS011;7420;53.574;10.040;2023-05-10T00:00:01;7.28;;;3.78;;
14665;SDS011;7420;53.574;10.040;2023-05-10T00:02:27;5.78;;;3.38;;
14665;SDS011;7420;53.574;10.040;2023-05-10T00:04:52;5.97;;;4.13;;
14665;SDS011;7420;53.574;10.040;2023-05-10T00:07:18;5.68;;;3.78;;
14665;SDS011;7420;53.574;10.040;2023-05-10T00:09:43;5.45;;;3.70;;
14665;SDS011;7420;53.574;10.040;2023-05-10T00:12:09;7.30;;;4.18;;
14665;SDS011;7420;53.574;10.040;2023-05-10T00:14:35;6.43;;;3.88;;
14665;SDS011;7420;53.574;10.040;2023-05-10T00:17:00;5.28;;;4.65;;
14665;SDS011;7420;53.574;10.040;2023-05-10T00:19:26;5.03;;;4.20;;
14665;SDS011;7420;53.574;10.040;2023-05-10T00:21:52;8.85;;;4.28;;
14665;SDS011;7420;53.574;10.040;2023-05-10T00:24:17;4.50;;;3.85;;
14665;SDS011;7420;53.574;10.040;2023-05-10T00:26:43;7.70;;;4.55;;
14665;SDS011;7420;53.574;10.040;2023-05-10T00:29:08;6.72;;;4.47;;
14665;SDS011;7420;53.574;10.040;2023-05-10T00:31:34;6.50;;;4.53;;
14665;SDS011;7420;53.574;10.040;2023-05-10T00:33:59;7.72;;;4.25;;
14665;SDS011;7420;53.574;10.040;2023-05-10T00:36:25;5.50;;;3.78;;
14665;SDS011;7420;53.574;10.040;2023-05-10T00:38:51;7.22;;;3.97;;
14665;SDS011;7420;53.574;10.040;2023-05-10T00:41:16;7.63;;;4.35;;
14665;SDS011;7420;53.574;10.040;2023-05-10T00:43:42;7.43;;;4.32;;
14665;SDS011;7420;53.574;10.040;2023-05-10T00:46:07;7.68;;;4.07;;
14665;SDS011;7420;53.574;10.040;2023-05-10T00:48:33;8.02;;;4.63;;
14665;SDS011;7420;53.574;10.040;2023-05-10T00:51:00;20.10;;;5.05;;
14665;SDS011;7420;53.574;10.040;2023-05-10T00:53:26;6.78;;;4.50;;
14665;SDS011;7420;53.574;10.040;2023-05-10T00:55:52;7.35;;;4.70;;
14665;SDS011;7420;53.574;10.040;2023-05-10T00:58:18;6.20;;;4.65;;
14665;SDS011;7420;53.574;10.040;2023-05-10T01:00:43;6.82;;;4.57;;
14665;SDS011;7420;53.574;10.040;2023-05-10T01:03:11;6.97;;;4.78;;
14665;SDS011;7420;53.574;10.040;2023-05-10T01:05:37;6.22;;;4.55;;
14665;SDS011;7420;53.574;10.040;2023-05-10T01:08:03;4.93;;;4.00;;
14665;SDS011;7420;53.574;10.040;2023-05-10T01:10:28;5.65;;;4.28;;
14665;SDS011;7420;53.574;10.040;2023-05-10T01:12:54;8.93;;;4.53;;
14665;SDS011;7420;53.574;10.040;2023-05-10T01:15:20;7.25;;;4.25;;
14665;SDS011;7420;53.574;10.040;2023-05-10T01:17:46;6.50;;;4.65;;
14665;SDS011;7420;53.574;10.040;2023-05-10T01:20:13;7.22;;;4.50;;
14665;SDS011;7420;53.574;10.040;2023-05-10T01:26:05;6.75;;;4.85;;
14665;SDS011;7420;53.574;10.040;2023-05-10T01:34:02;4.85;;;3.83;;
14665;SDS011;7420;53.574;10.040;2023-05-10T01:45:02;7.82;;;4.60;;
14665;SDS011;7420;53.574;10.040;2023-05-10T01:47:46;7.38;;;4.55;;
14665;SDS011;7420;53.574;10.040;2023-05-10T01:50:27;5.70;;;4.28;;
14665;SDS011;7420;53.574;10.040;2023-05-10T01:52:55;7.60;;;4.57;;
14665;SDS011;7420;53.574;10.040;2023-05-10T01:55:25;7.97;;;4.53;;
14665;SDS011;7420;53.574;10.040;2023-05-10T01:58:05;5.85;;;4.35;;
14665;SDS011;7420;53.574;10.040;2023-05-10T02:00:34;8.57;;;4.35;;
14665;SDS011;7420;53.574;10.040;2023-05-10T02:03:01;8.20;;;5.18;;
14665;SDS011;7420;53.574;10.040;2023-05-10T02:05:31;7.18;;;4.97;;
14665;SDS011;7420;53.574;10.040;2023-05-10T02:07:59;8.57;;;4.72;;
14665;SDS011;7420;53.574;10.040;2023-05-10T02:10:27;6.40;;;4.35;;
14665;SDS011;7420;53.574;10.040;2023-05-10T02:12:54;6.80;;;4.60;;
14665;SDS011;7420;53.574;10.040;2023-05-10T02:15:23;5.75;;;4.90;;
14665;SDS011;7420;53.574;10.040;2023-05-10T02:17:50;6.78;;;4.40;;
14665;SDS011;7420;53.574;10.040;2023-05-10T02:20:18;5.25;;;3.92;;
14665;SDS011;7420;53.574;10.040;2023-05-10T02:22:44;5.75;;;4.80;;
14665;SDS011;7420;53.574;10.040;2023-05-10T02:25:12;6.22;;;4.68;;
14665;SDS011;7420;53.574;10.040;2023-05-10T02:27:39;8.25;;;4.97;;
14665;SDS011;7420;53.574;10.040;2023-05-10T02:30:07;5.85;;;4.85;;
14665;SDS011;7420;53.574;10.040;2023-05-10T02:32:34;8.95;;;5.32;;
14665;SDS011;7420;53.574;10.040;2023-05-10T02:35:01;7.03;;;4.40;;
14665;SDS011;7420;53.574;10.040;2023-05-10T02:37:28;8.02;;;5.50;;
14665;SDS011;7420;53.574;10.040;2023-05-10T02:39:54;5.55;;;4.60;;
14665;SDS011;7420;53.574;10.040;2023-05-10T02:42:27;5.63;;;4.35;;
14665;SDS011;7420;53.574;10.040;2023-05-10T02:44:55;7.35;;;4.57;;
14665;SDS011;7420;53.574;10.040;2023-05-10T02:47:25;8.52;;;4.80;;
14665;SDS011;7420;53.574;10.040;2023-05-10T02:49:50;5.20;;;4.70;;
14665;SDS011;7420;53.574;10.040;2023-05-10T02:52:18;8.90;;;4.95;;
14665;SDS011;7420;53.574;10.040;2023-05-10T02:57:17;6.50;;;5.00;;
14665;SDS011;7420;53.574;10.040;2023-05-10T02:59:49;8.80;;;4.68;;
14665;SDS011;7420;53.574;10.040;2023-05-10T03:02:15;6.85;;;4.68;;
14665;SDS011;7420;53.574;10.040;2023-05-10T03:04:41;8.57;;;4.78;;
14665;SDS011;7420;53.574;10.040;2023-05-10T03:07:06;7.63;;;5.22;;
14665;SDS011;7420;53.574;10.040;2023-05-10T03:09:32;7.28;;;4.82;;
14665;SDS011;7420;53.574;10.040;2023-05-10T03:14:57;7.85;;;5.38;;
14665;SDS011;7420;53.574;10.040;2023-05-10T03:20:24;6.88;;;4.47;;
14665;SDS011;7420;53.574;10.040;2023-05-10T03:22:55;8.75;;;4.47;;
14665;SDS011;7420;53.574;10.040;2023-05-10T03:25:29;6.75;;;5.07;;
14665;SDS011;7420;53.574;10.040;2023-05-10T03:27:59;6.75;;;4.57;;
14665;SDS011;7420;53.574;10.040;2023-05-10T03:30:27;8.48;;;5.10;;
14665;SDS011;7420;53.574;10.040;2023-05-10T03:32:53;7.45;;;4.70;;
14665;SDS011;7420;53.574;10.040;2023-05-10T03:35:19;5.80;;;5.20;;
14665;SDS011;7420;53.574;10.040;2023-05-10T03:37:45;7.80;;;5.32;;
14665;SDS011;7420;53.574;10.040;2023-05-10T03:40:10;6.40;;;4.57;;
14665;SDS011;7420;53.574;10.040;2023-05-10T03:42:38;5.70;;;4.53;;
14665;SDS011;7420;53.574;10.040;2023-05-10T03:45:04;6.05;;;4.65;;
14665;SDS011;7420;53.574;10.040;2023-05-10T03:47:30;7.85;;;4.63;;
14665;SDS011;7420;53.574;10.040;2023-05-10T03:49:56;5.65;;;4.43;;
14665;SDS011;7420;53.574;10.040;2023-05-10T03:52:22;8.48;;;5.38;;
14665;SDS011;7420;53.574;10.040;2023-05-10T03:54:48;7.95;;;5.35;;
14665;SDS011;7420;53.574;10.040;2023-05-10T03:57:13;7.40;;;4.78;;
14665;SDS011;7420;53.574;10.040;2023-05-10T03:59:39;6.55;;;5.15;;
14665;SDS011;7420;53.574;10.040;2023-05-10T04:02:04;8.93;;;5.18;;
14665;SDS011;7420;53.574;10.040;2023-05-10T04:04:30;6.10;;;5.07;;
14665;SDS011;7420;53.574;10.040;2023-05-10T04:06:56;8.35;;;5.30;;
14665;SDS011;7420;53.574;10.040;2023-05-10T04:09:21;5.95;;;5.03;;
14665;SDS011;7420;53.574;10.040;2023-05-10T04:11:47;6.72;;;4.70;;
14665;SDS011;7420;53.574;10.040;2023-05-10T04:14:12;7.57;;;5.25;;
14665;SDS011;7420;53.574;10.040;2023-05-10T04:16:38;6.60;;;4.78;;
14665;SDS011;7420;53.574;10.040;2023-05-10T04:19:03;6.80;;;5.00;;
14665;SDS011;7420;53.574;10.040;2023-05-10T04:21:29;6.20;;;4.93;;
14665;SDS011;7420;53.574;10.040;2023-05-10T04:23:55;7.85;;;5.00;;
14665;SDS011;7420;53.574;10.040;2023-05-10T04:26:21;6.10;;;4.80;;
14665;SDS011;7420;53.574;10.040;2023-05-10T04:28:47;7.75;;;5.03;;
14665;SDS011;7420;53.574;10.040;2023-05-10T04:31:12;11.18;;;4.80;;
14665;SDS011;7420;53.574;10.040;2023-05-10T04:33:38;5.28;;;4.78;;
14665;SDS011;7420;53.574;10.040;2023-05-10T04:36:03;7.32;;;5.13;;
14665;SDS011;7420;53.574;10.040;2023-05-10T04:38:29;5.57;;;4.40;;
14665;SDS011;7420;53.574;10.040;2023-05-10T04:41:03;6.00;;;4.60;;
14665;SDS011;7420;53.574;10.040;2023-05-10T04:43:32;8.25;;;5.13;;
14665;SDS011;7420;53.574;10.040;2023-05-10T04:45:58;11.05;;;5.72;;
14665;SDS011;7420;53.574;10.040;2023-05-10T04:48:23;6.72;;;4.88;;
14665;SDS011;7420;53.574;10.040;2023-05-10T04:50:49;6.05;;;5.45;;
14665;SDS011;7420;53.574;10.040;2023-05-10T04:53:14;6.30;;;5.60;;
14665;SDS011;7420;53.574;10.040;2023-05-10T04:55:40;7.28;;;4.85;;
14665;SDS011;7420;53.574;10.040;2023-05-10T04:58:05;9.25;;;5.55;;
14665;SDS011;7420;53.574;10.040;2023-05-10T05:00:31;7.95;;;4.95;;
14665;SDS011;7420;53.574;10.040;2023-05-10T05:02:57;8.70;;;5.00;;
14665;SDS011;7420;53.574;10.040;2023-05-10T05:05:23;8.77;;;5.03;;
14665;SDS011;7420;53.574;10.040;2023-05-10T05:07:48;9.60;;;4.78;;
14665;SDS011;7420;53.574;10.040;2023-05-10T05:10:14;5.82;;;4.88;;
14665;SDS011;7420;53.574;10.040;2023-05-10T05:12:40;7.97;;;4.97;;
14665;SDS011;7420;53.574;10.040;2023-05-10T05:15:05;11.30;;;5.68;;
14665;SDS011;7420;53.574;10.040;2023-05-10T05:17:33;6.32;;;5.05;;
14665;SDS011;7420;53.574;10.040;2023-05-10T05:19:58;7.90;;;5.10;;
14665;SDS011;7420;53.574;10.040;2023-05-10T05:22:24;7.78;;;5.20;;
14665;SDS011;7420;53.574;10.040;2023-05-10T05:24:53;6.20;;;4.43;;
14665;SDS011;7420;53.574;10.040;2023-05-10T05:27:22;7.18;;;5.07;;
14665;SDS011;7420;53.574;10.040;2023-05-10T05:29:54;7.90;;;5.03;;
14665;SDS011;7420;53.574;10.040;2023-05-10T05:32:20;5.90;;;4.85;;
14665;SDS011;7420;53.574;10.040;2023-05-10T05:34:46;7.60;;;5.03;;
14665;SDS011;7420;53.574;10.040;2023-05-10T05:37:14;5.57;;;4.63;;
14665;SDS011;7420;53.574;10.040;2023-05-10T05:39:41;6.10;;;4.60;;
14665;SDS011;7420;53.574;10.040;2023-05-10T05:42:07;6.25;;;4.55;;
14665;SDS011;7420;53.574;10.040;2023-05-10T05:44:34;8.75;;;5.18;;
14665;SDS011;7420;53.574;10.040;2023-05-10T05:47:00;7.28;;;5.35;;
14665;SDS011;7420;53.574;10.040;2023-05-10T05:49:26;8.15;;;4.85;;
14665;SDS011;7420;53.574;10.040;2023-05-10T05:51:53;7.95;;;4.60;;
14665;SDS011;7420;53.574;10.040;2023-05-10T05:54:18;7.65;;;4.80;;
14665;SDS011;7420;53.574;10.040;2023-05-10T05:56:44;6.47;;;4.43;;
14665;SDS011;7420;53.574;10.040;2023-05-10T05:59:10;7.97;;;5.20;;
14665;SDS011;7420;53.574;10.040;2023-05-10T06:01:36;9.05;;;4.38;;
14665;SDS011;7420;53.574;10.040;2023-05-10T06:04:04;7.90;;;4.22;;
14665;SDS011;7420;53.574;10.040;2023-05-10T06:06:30;8.57;;;4.28;;
14665;SDS011;7420;53.574;10.040;2023-05-10T06:08:57;5.80;;;4.47;;
14665;SDS011;7420;53.574;10.040;2023-05-10T06:11:22;7.93;;;5.25;;
14665;SDS011;7420;53.574;10.040;2023-05-10T06:13:48;8.57;;;4.60;;
14665;SDS011;7420;53.574;10.040;2023-05-10T06:16:14;6.18;;;4.82;;
14665;SDS011;7420;53.574;10.040;2023-05-10T06:18:39;6.45;;;4.55;;
14665;SDS011;7420;53.574;10.040;2023-05-10T06:21:05;6.70;;;4.15;;
14665;SDS011;7420;53.574;10.040;2023-05-10T06:23:39;6.78;;;4.93;;
14665;SDS011;7420;53.574;10.040;2023-05-10T06:26:05;6.72;;;5.00;;
14665;SDS011;7420;53.574;10.040;2023-05-10T06:28:30;5.82;;;4.65;;
14665;SDS011;7420;53.574;10.040;2023-05-10T06:31:00;5.32;;;4.60;;
14665;SDS011;7420;53.574;10.040;2023-05-10T06:33:26;6.72;;;4.75;;
14665;SDS011;7420;53.574;10.040;2023-05-10T06:35:52;7.43;;;5.10;;
14665;SDS011;7420;53.574;10.040;2023-05-10T06:38:18;6.95;;;4.72;;
14665;SDS011;7420;53.574;10.040;2023-05-10T06:40:43;7.45;;;4.78;;
14665;SDS011;7420;53.574;10.040;2023-05-10T06:43:09;6.05;;;4.82;;
14665;SDS011;7420;53.574;10.040;2023-05-10T06:45:35;7.22;;;4.63;;
14665;SDS011;7420;53.574;10.040;2023-05-10T06:48:00;7.00;;;4.40;;
14665;SDS011;7420;53.574;10.040;2023-05-10T06:50:26;5.88;;;5.00;;
14665;SDS011;7420;53.574;10.040;2023-05-10T06:52:52;6.20;;;4.68;;
14665;SDS011;7420;53.574;10.040;2023-05-10T06:55:17;9.25;;;5.07;;
14665;SDS011;7420;53.574;10.040;2023-05-10T06:57:43;6.57;;;4.57;;
14665;SDS011;7420;53.574;10.040;2023-05-10T07:00:09;7.18;;;4.85;;
14665;SDS011;7420;53.574;10.040;2023-05-10T07:02:35;7.35;;;5.00;;
14665;SDS011;7420;53.574;10.040;2023-05-10T07:05:00;8.15;;;5.13;;
14665;SDS011;7420;53.574;10.040;2023-05-10T07:07:27;7.03;;;4.57;;
14665;SDS011;7420;53.574;10.040;2023-05-10T07:09:52;7.78;;;4.93;;
14665;SDS011;7420;53.574;10.040;2023-05-10T07:12:18;8.35;;;5.40;;
14665;SDS011;7420;53.574;10.040;2023-05-10T07:14:44;6.32;;;4.40;;
14665;SDS011;7420;53.574;10.040;2023-05-10T07:17:10;8.00;;;4.97;;
14665;SDS011;7420;53.574;10.040;2023-05-10T07:19:36;6.60;;;4.18;;
14665;SDS011;7420;53.574;10.040;2023-05-10T07:22:01;6.95;;;4.80;;
14665;SDS011;7420;53.574;10.040;2023-05-10T07:24:27;7.13;;;5.18;;
14665;SDS011;7420;53.574;10.040;2023-05-10T07:26:52;7.78;;;5.03;;
14665;SDS011;7420;53.574;10.040;2023-05-10T07:29:18;6.88;;;4.93;;
14665;SDS011;7420;53.574;10.040;2023-05-10T07:31:43;7.93;;;5.10;;
14665;SDS011;7420;53.574;10.040;2023-05-10T07:34:09;7.75;;;4.80;;
14665;SDS011;7420;53.574;10.040;2023-05-10T07:36:35;8.20;;;4.90;;
14665;SDS011;7420;53.574;10.040;2023-05-10T07:39:00;6.60;;;4.63;;
14665;SDS011;7420;53.574;10.040;2023-05-10T07:41:26;5.32;;;4.63;;
14665;SDS011;7420;53.574;10.040;2023-05-10T07:43:52;7.40;;;5.22;;
14665;SDS011;7420;53.574;10.040;2023-05-10T07:46:17;9.23;;;5.32;;
14665;SDS011;7420;53.574;10.040;2023-05-10T07:48:44;5.80;;;4.47;;
14665;SDS011;7420;53.574;10.040;2023-05-10T07:51:10;5.88;;;4.50;;
14665;SDS011;7420;53.574;10.040;2023-05-10T07:53:38;6.45;;;4.68;;
14665;SDS011;7420;53.574;10.040;2023-05-10T07:56:20;7.90;;;5.05;;
14665;SDS011;7420;53.574;10.040;2023-05-10T07:58:47;6.53;;;4.20;;
14665;SDS011;7420;53.574;10.040;2023-05-10T08:01:16;6.60;;;5.15;;
14665;SDS011;7420;53.574;10.040;2023-05-10T08:03:41;6.15;;;4.50;;
14665;SDS011;7420;53.574;10.040;2023-05-10T08:06:07;5.13;;;4.63;;
14665;SDS011;7420;53.574;10.040;2023-05-10T08:08:32;5.78;;;5.07;;
14665;SDS011;7420;53.574;10.040;2023-05-10T08:10:57;6.03;;;4.57;;
14665;SDS011;7420;53.574;10.040;2023-05-10T08:13:23;7.03;;;4.55;;
14665;SDS011;7420;53.574;10.040;2023-05-10T08:15:48;8.07;;;4.78;;
14665;SDS011;7420;53.574;10.040;2023-05-10T08:18:14;7.25;;;5.25;;
14665;SDS011;7420;53.574;10.040;2023-05-10T08:20:40;7.70;;;4.72;;
14665;SDS011;7420;53.574;10.040;2023-05-10T08:23:05;9.65;;;4.80;;
14665;SDS011;7420;53.574;10.040;2023-05-10T08:25:31;9.05;;;5.20;;
14665;SDS011;7420;53.574;10.040;2023-05-10T08:27:56;6.63;;;5.00;;
14665;SDS011;7420;53.574;10.040;2023-05-10T08:30:22;7.95;;;5.07;;
14665;SDS011;7420;53.574;10.040;2023-05-10T08:32:48;6.07;;;4.72;;
14665;SDS011;7420;53.574;10.040;2023-05-10T08:35:13;5.78;;;4.72;;
14665;SDS011;7420;53.574;10.040;2023-05-10T08:37:39;7.90;;;4.97;;
14665;SDS011;7420;53.574;10.040;2023-05-10T08:40:05;7.80;;;5.20;;
14665;SDS011;7420;53.574;10.040;2023-05-10T08:42:31;5.82;;;4.90;;
14665;SDS011;7420;53.574;10.040;2023-05-10T08:45:01;7.70;;;5.00;;
14665;SDS011;7420;53.574;10.040;2023-05-10T08:47:28;5.75;;;4.55;;
14665;SDS011;7420;53.574;10.040;2023-05-10T08:49:54;5.97;;;4.18;;
14665;SDS011;7420;53.574;10.040;2023-05-10T08:52:21;7.15;;;4.60;;
14665;SDS011;7420;53.574;10.040;2023-05-10T08:54:49;5.15;;;4.50;;
14665;SDS011;7420;53.574;10.040;2023-05-10T08:57:15;6.63;;;4.80;;
14665;SDS011;7420;53.574;10.040;2023-05-10T08:59:41;7.18;;;4.68;;
14665;SDS011;7420;53.574;10.040;2023-05-10T09:02:06;8.18;;;5.22;;
14665;SDS011;7420;53.574;10.040;2023-05-10T09:04:35;7.35;;;4.85;;
14665;SDS011;7420;53.574;10.040;2023-05-10T09:07:00;6.13;;;4.45;;
14665;SDS011;7420;53.574;10.040;2023-05-10T09:09:26;7.55;;;5.35;;
14665;SDS011;7420;53.574;10.040;2023-05-10T09:11:52;8.15;;;4.95;;
14665;SDS011;7420;53.574;10.040;2023-05-10T09:14:18;8.82;;;4.45;;
14665;SDS011;7420;53.574;10.040;2023-05-10T09:16:45;7.63;;;5.10;;
14665;SDS011;7420;53.574;10.040;2023-05-10T09:19:11;8.82;;;5.57;;
14665;SDS011;7420;53.574;10.040;2023-05-10T09:21:37;9.32;;;5.95;;
14665;SDS011;7420;53.574;10.040;2023-05-10T09:24:03;7.03;;;4.90;;
14665;SDS011;7420;53.574;10.040;2023-05-10T09:26:30;10.10;;;6.20;;
14665;SDS011;7420;53.574;10.040;2023-05-10T09:28:59;6.47;;;5.00;;
14665;SDS011;7420;53.574;10.040;2023-05-10T09:31:42;7.53;;;5.70;;
14665;SDS011;7420;53.574;10.040;2023-05-10T09:34:08;10.88;;;5.47;;
14665;SDS011;7420;53.574;10.040;2023-05-10T09:36:36;11.60;;;5.35;;
14665;SDS011;7420;53.574;10.040;2023-05-10T09:39:02;6.75;;;5.72;;
14665;SDS011;7420;53.574;10.040;2023-05-10T09:41:37;5.75;;;5.00;;
14665;SDS011;7420;53.574;10.040;2023-05-10T09:44:02;6.97;;;5.50;;
14665;SDS011;7420;53.574;10.040;2023-05-10T09:46:28;6.75;;;5.90;;
14665;SDS011;7420;53.574;10.040;2023-05-10T09:48:53;8.13;;;5.78;;
14665;SDS011;7420;53.574;10.040;2023-05-10T09:51:22;8.65;;;5.82;;
14665;SDS011;7420;53.574;10.040;2023-05-10T09:54:08;8.15;;;5.65;;
14665;SDS011;7420;53.574;10.040;2023-05-10T09:56:36;10.15;;;6.07;;
14665;SDS011;7420;53.574;10.040;2023-05-10T09:59:04;8.05;;;5.85;;
14665;SDS011;7420;53.574;10.040;2023-05-10T10:01:30;9.70;;;6.60;;
14665;SDS011;7420;53.574;10.040;2023-05-10T10:03:56;8.70;;;6.15;;
14665;SDS011;7420;53.574;10.040;2023-05-10T10:06:24;10.10;;;7.20;;
14665;SDS011;7420;53.574;10.040;2023-05-10T10:08:50;8.02;;;6.78;;
14665;SDS011;7420;53.574;10.040;2023-05-10T10:11:16;7.72;;;6.75;;
14665;SDS011;7420;53.574;10.040;2023-05-10T10:13:42;11.07;;;7.60;;
14665;SDS011;7420;53.574;10.040;2023-05-10T10:16:08;8.43;;;7.53;;
14665;SDS011;7420;53.574;10.040;2023-05-10T10:18:34;7.90;;;6.78;;
14665;SDS011;7420;53.574;10.040;2023-05-10T10:21:04;12.05;;;8.80;;
14665;SDS011;7420;53.574;10.040;2023-05-10T10:23:32;11.30;;;8.50;;
14665;SDS011;7420;53.574;10.040;2023-05-10T10:25:57;9.13;;;7.82;;
14665;SDS011;7420;53.574;10.040;2023-05-10T10:31:02;10.02;;;7.57;;
14665;SDS011;7420;53.574;10.040;2023-05-10T10:36:42;12.48;;;8.57;;
14665;SDS011;7420;53.574;10.040;2023-05-10T10:39:10;13.23;;;8.10;;
14665;SDS011;7420;53.574;10.040;2023-05-10T10:41:49;11.38;;;8.35;;
14665;SDS011;7420;53.574;10.040;2023-05-10T10:44:23;10.55;;;8.65;;
14665;SDS011;7420;53.574;10.040;2023-05-10T10:49:50;11.98;;;8.68;;
14665;SDS011;7420;53.574;10.040;2023-05-10T10:52:39;13.63;;;9.40;;
14665;SDS011;7420;53.574;10.040;2023-05-10T10:55:17;11.18;;;9.05;;
14665;SDS011;7420;53.574;10.040;2023-05-10T10:57:48;14.73;;;9.50;;
14665;SDS011;7420;53.574;10.040;2023-05-10T11:00:20;10.80;;;9.07;;
14665;SDS011;7420;53.574;10.040;2023-05-10T11:02:48;13.30;;;9.35;;
14665;SDS011;7420;53.574;10.040;2023-05-10T11:07:57;13.02;;;9.25;;
14665;SDS011;7420;53.574;10.040;2023-05-10T11:10:24;11.45;;;8.85;;
14665;SDS011;7420;53.574;10.040;2023-05-10T11:12:58;10.20;;;8.38;;
14665;SDS011;7420;53.574;10.040;2023-05-10T11:15:30;12.93;;;9.75;;
14665;SDS011;7420;53.574;10.040;2023-05-10T11:20:51;13.97;;;9.13;;
14665;SDS011;7420;53.574;10.040;2023-05-10T11:23:20;10.60;;;8.93;;
14665;SDS011;7420;53.574;10.040;2023-05-10T11:25:46;11.32;;;9.07;;
14665;SDS011;7420;53.574;10.040;2023-05-10T11:28:13;11.60;;;9.25;;
14665;SDS011;7420;53.574;10.040;2023-05-10T11:30:39;10.85;;;9.75;;
14665;SDS011;7420;53.574;10.040;2023-05-10T11:33:06;13.90;;;9.73;;
14665;SDS011;7420;53.574;10.040;2023-05-10T11:35:39;11.15;;;9.52;;
14665;SDS011;7420;53.574;10.040;2023-05-10T11:38:09;12.75;;;9.85;;
14665;SDS011;7420;53.574;10.040;2023-05-10T11:40:35;14.88;;;9.55;;
14665;SDS011;7420;53.574;10.040;2023-05-10T11:43:02;12.10;;;9.85;;
14665;SDS011;7420;53.574;10.040;2023-05-10T11:45:28;11.93;;;9.95;;
14665;SDS011;7420;53.574;10.040;2023-05-10T11:47:55;13.50;;;10.00;;
14665;SDS011;7420;53.574;10.040;2023-05-10T11:50:21;17.08;;;10.50;;
14665;SDS011;7420;53.574;10.040;2023-05-10T11:52:51;13.43;;;10.23;;
14665;SDS011;7420;53.574;10.040;2023-05-10T11:55:17;14.40;;;10.80;;
14665;SDS011;7420;53.574;10.040;2023-05-10T11:57:42;14.63;;;10.65;;
14665;SDS011;7420;53.574;10.040;2023-05-10T12:00:10;12.38;;;10.40;;
14665;SDS011;7420;53.574;10.040;2023-05-10T12:02:37;14.95;;;11.07;;
14665;SDS011;7420;53.574;10.040;2023-05-10T12:05:03;15.48;;;11.63;;
14665;SDS011;7420;53.574;10.040;2023-05-10T12:07:30;13.70;;;10.85;;
14665;SDS011;7420;53.574;10.040;2023-05-10T12:12:44;14.98;;;12.23;;
14665;SDS011;7420;53.574;10.040;2023-05-10T12:15:20;15.55;;;11.95;;
14665;SDS011;7420;53.574;10.040;2023-05-10T12:17:47;15.73;;;12.02;;
14665;SDS011;7420;53.574;10.040;2023-05-10T12:20:17;28.27;;;16.75;;
14665;SDS011;7420;53.574;10.040;2023-05-10T12:22:52;17.90;;;10.40;;
14665;SDS011;7420;53.574;10.040;2023-05-10T12:25:20;11.88;;;9.48;;
14665;SDS011;7420;53.574;10.040;2023-05-10T12:27:48;14.80;;;10.63;;
14665;SDS011;7420;53.574;10.040;2023-05-10T12:30:21;15.25;;;9.90;;
14665;SDS011;7420;53.574;10.040;2023-05-10T12:32:51;16.23;;;10.48;;
14665;SDS011;7420;53.574;10.040;2023-05-10T12:35:17;10.18;;;9.07;;
14665;SDS011;7420;53.574;10.040;2023-05-10T12:37:47;12.02;;;8.13;;
14665;SDS011;7420;53.574;10.040;2023-05-10T12:40:13;12.55;;;10.35;;
14665;SDS011;7420;53.574;10.040;2023-05-10T12:42:39;10.70;;;9.07;;
14665;SDS011;7420;53.574;10.040;2023-05-10T12:45:05;11.30;;;9.18;;
14665;SDS011;7420;53.574;10.040;2023-05-10T12:47:32;12.13;;;9.43;;
14665;SDS011;7420;53.574;10.040;2023-05-10T12:49:59;12.20;;;10.45;;
14665;SDS011;7420;53.574;10.040;2023-05-10T12:52:25;13.20;;;10.35;;
14665;SDS011;7420;53.574;10.040;2023-05-10T12:54:51;14.35;;;11.73;;
14665;SDS011;7420;53.574;10.040;2023-05-10T12:57:17;13.57;;;10.98;;
14665;SDS011;7420;53.574;10.040;2023-05-10T12:59:43;13.77;;;10.57;;
14665;SDS011;7420;53.574;10.040;2023-05-10T13:02:08;13.70;;;10.15;;
14665;SDS011;7420;53.574;10.040;2023-05-10T13:04:34;11.65;;;10.27;;
14665;SDS011;7420;53.574;10.040;2023-05-10T13:07:02;10.23;;;9.10;;
14665;SDS011;7420;53.574;10.040;2023-05-10T13:09:28;11.82;;;9.90;;
14665;SDS011;7420;53.574;10.040;2023-05-10T13:11:54;13.13;;;10.05;;
14665;SDS011;7420;53.574;10.040;2023-05-10T13:14:20;13.10;;;10.00;;
14665;SDS011;7420;53.574;10.040;2023-05-10T13:16:46;11.95;;;9.15;;
14665;SDS011;7420;53.574;10.040;2023-05-10T13:19:15;8.27;;;7.47;;
14665;SDS011;7420;53.574;10.040;2023-05-10T13:21:41;8.63;;;7.13;;
14665;SDS011;7420;53.574;10.040;2023-05-10T13:24:07;9.85;;;7.20;;
14665;SDS011;7420;53.574;10.040;2023-05-10T13:26:32;9.43;;;8.07;;
14665;SDS011;7420;53.574;10.040;2023-05-10T13:28:58;8.90;;;7.38;;
14665;SDS011;7420;53.574;10.040;2023-05-10T13:31:24;7.40;;;6.32;;
14665;SDS011;7420;53.574;10.040;2023-05-10T13:33:50;6.60;;;5.95;;
14665;SDS011;7420;53.574;10.040;2023-05-10T13:36:15;7.88;;;6.50;;
14665;SDS011;7420;53.574;10.040;2023-05-10T13:38:41;7.90;;;6.10;;
14665;SDS011;7420;53.574;10.040;2023-05-10T13:41:06;6.88;;;6.18;;
14665;SDS011;7420;53.574;10.040;2023-05-10T13:43:32;7.43;;;6.72;;
14665;SDS011;7420;53.574;10.040;2023-05-10T13:45:57;9.38;;;8.15;;
14665;SDS011;7420;53.574;10.040;2023-05-10T13:48:23;9.60;;;8.07;;
14665;SDS011;7420;53.574;10.040;2023-05-10T13:50:48;10.40;;;8.82;;
14665;SDS011;7420;53.574;10.040;2023-05-10T13:53:13;11.90;;;9.02;;
14665;SDS011;7420;53.574;10.040;2023-05-10T13:55:39;9.98;;;8.57;;
14665;SDS011;7420;53.574;10.040;2023-05-10T13:58:05;10.50;;;8.65;;
14665;SDS011;7420;53.574;10.040;2023-05-10T14:00:30;10.77;;;8.30;;
14665;SDS011;7420;53.574;10.040;2023-05-10T14:02:56;9.35;;;7.85;;
14665;SDS011;7420;53.574;10.040;2023-05-10T14:05:21;9.02;;;7.72;;
14665;SDS011;7420;53.574;10.040;2023-05-10T14:07:48;12.07;;;7.53;;
14665;SDS011;7420;53.574;10.040;2023-05-10T14:10:15;8.20;;;7.40;;
14665;SDS011;7420;53.574;10.040;2023-05-10T14:12:40;9.98;;;7.00;;
14665;SDS011;7420;53.574;10.040;2023-05-10T14:15:06;9.07;;;7.90;;
14665;SDS011;7420;53.574;10.040;2023-05-10T14:17:32;11.25;;;7.65;;
14665;SDS011;7420;53.574;10.040;2023-05-10T14:19:58;8.88;;;7.95;;
14665;SDS011;7420;53.574;10.040;2023-05-10T14:22:23;9.27;;;7.75;;
14665;SDS011;7420;53.574;10.040;2023-05-10T14:24:49;8.65;;;7.78;;
14665;SDS011;7420;53.574;10.040;2023-05-10T14:27:15;7.90;;;7.07;;
14665;SDS011;7420;53.574;10.040;2023-05-10T14:29:41;7.05;;;6.35;;
14665;SDS011;7420;53.574;10.040;2023-05-10T14:32:06;10.25;;;7.43;;
14665;SDS011;7420;53.574;10.040;2023-05-10T14:34:32;7.20;;;6.47;;
14665;SDS011;7420;53.574;10.040;2023-05-10T14:36:58;6.57;;;5.88;;
14665;SDS011;7420;53.574;10.040;2023-05-10T14:39:23;6.72;;;6.03;;
14665;SDS011;7420;53.574;10.040;2023-05-10T14:41:49;6.88;;;6.18;;
14665;SDS011;7420;53.574;10.040;2023-05-10T14:44:16;6.53;;;5.93;;
14665;SDS011;7420;53.574;10.040;2023-05-10T14:46:42;8.40;;;6.05;;
14665;SDS011;7420;53.574;10.040;2023-05-10T14:49:07;9.38;;;6.18;;
14665;SDS011;7420;53.574;10.040;2023-05-10T14:51:32;9.23;;;6.97;;
14665;SDS011;7420;53.574;10.040;2023-05-10T14:54:01;9.20;;;6.65;;
14665;SDS011;7420;53.574;10.040;2023-05-10T14:56:27;8.05;;;7.28;;
14665;SDS011;7420;53.574;10.040;2023-05-10T14:58:53;7.88;;;7.07;;
14665;SDS011;7420;53.574;10.040;2023-05-10T15:01:18;7.22;;;6.53;;
14665;SDS011;7420;53.574;10.040;2023-05-10T15:03:44;7.85;;;6.15;;
14665;SDS011;7420;53.574;10.040;2023-05-10T15:06:09;6.97;;;6.10;;
14665;SDS011;7420;53.574;10.040;2023-05-10T15:08:35;7.95;;;6.55;;
14665;SDS011;7420;53.574;10.040;2023-05-10T15:11:01;7.88;;;6.25;;
14665;SDS011;7420;53.574;10.040;2023-05-10T15:13:28;8.75;;;6.82;;
14665;SDS011;7420;53.574;10.040;2023-05-10T15:15:53;7.00;;;6.22;;
14665;SDS011;7420;53.574;10.040;2023-05-10T15:18:19;7.95;;;6.38;;
14665;SDS011;7420;53.574;10.040;2023-05-10T15:20:44;8.57;;;6.38;;
14665;SDS011;7420;53.574;10.040;2023-05-10T15:23:09;7.68;;;6.20;;